createdAt,value
2022-10-23T00:02:40.282Z,9.34
2022-10-23T00:05:43.726Z,9.21
2022-10-23T00:08:48.046Z,9.14
2022-10-23T00:11:51.859Z,9.11
2022-10-23T00:14:56.195Z,9.04
2022-10-23T00:17:59.087Z,8.98
2022-10-23T00:21:02.448Z,8.96
2022-10-23T00:24:06.813Z,8.89
2022-10-23T00:27:09.529Z,8.90
2022-10-23T00:30:14.046Z,8.91
2022-10-23T00:33:16.670Z,8.86
2022-10-23T00:36:21.607Z,9.01
2022-10-23T00:39:24.316Z,9.11
2022-10-23T00:42:28.348Z,9.23
2022-10-23T00:45:33.547Z,9.24
2022-10-23T00:48:36.589Z,9.35
2022-10-23T00:51:46.587Z,9.35
2022-10-23T00:54:49.466Z,9.37
2022-10-23T00:57:52.691Z,9.43
2022-10-23T01:00:57.022Z,9.53
2022-10-23T01:04:01.415Z,9.50
2022-10-23T01:07:15.452Z,9.57
2022-10-23T01:10:27.109Z,9.58
2022-10-23T01:13:51.073Z,9.62
2022-10-23T01:17:02.812Z,9.74
2022-10-23T01:20:25.424Z,9.67
2022-10-23T01:23:38.085Z,9.67
2022-10-23T01:26:46.818Z,9.67
2022-10-23T01:30:16.278Z,9.64
2022-10-23T01:33:28.542Z,9.63
2022-10-23T01:36:34.283Z,9.70
2022-10-23T01:39:41.383Z,9.72
2022-10-23T01:42:49.849Z,9.73
2022-10-23T01:45:58.392Z,9.71
2022-10-23T01:49:03.746Z,9.76
2022-10-23T01:52:11.725Z,9.76
2022-10-23T01:55:15.742Z,9.79
2022-10-23T01:58:21.225Z,9.76
2022-10-23T02:01:27.768Z,9.78
2022-10-23T02:04:36.774Z,9.77
2022-10-23T02:07:40.074Z,9.73
2022-10-23T02:11:04.936Z,9.78
2022-10-23T02:14:23.646Z,9.76
2022-10-23T02:17:36.125Z,9.70
2022-10-23T02:24:12.263Z,9.65
2022-10-23T02:27:28.904Z,9.58
2022-10-23T02:30:35.793Z,9.60
2022-10-23T02:33:41.330Z,9.57
2022-10-23T02:36:44.306Z,9.55
2022-10-23T02:39:49.235Z,9.60
2022-10-23T02:43:01.676Z,9.51
2022-10-23T02:46:26.612Z,9.47
2022-10-23T02:49:51.202Z,9.38
2022-10-23T02:53:06.389Z,9.30
2022-10-23T02:56:25.690Z,9.23
2022-10-23T02:59:51.168Z,9.15
2022-10-23T03:02:59.355Z,9.09
2022-10-23T03:06:03.146Z,9.03
2022-10-23T03:09:09.032Z,8.98
2022-10-23T03:12:11.717Z,8.91
2022-10-23T03:15:16.513Z,8.88
2022-10-23T03:18:19.150Z,8.79
2022-10-23T03:21:22.784Z,8.76
2022-10-23T03:24:29.413Z,8.73
2022-10-23T03:27:32.617Z,8.65
2022-10-23T03:30:36.068Z,8.54
2022-10-23T03:33:39.094Z,8.52
2022-10-23T03:36:41.978Z,8.43
2022-10-23T03:39:45.152Z,8.25
2022-10-23T03:42:47.837Z,8.29
2022-10-23T03:45:52.204Z,8.28
2022-10-23T03:48:58.189Z,8.30
2022-10-23T03:52:01.174Z,8.31
2022-10-23T03:55:04.685Z,8.34
2022-10-23T03:58:07.687Z,8.38
2022-10-23T04:01:10.558Z,8.39
2022-10-23T04:04:14.448Z,8.36
2022-10-23T04:07:17.259Z,8.40
2022-10-23T04:10:20.405Z,8.30
2022-10-23T04:13:23.044Z,8.21
2022-10-23T04:16:27.075Z,8.25
2022-10-23T04:19:29.730Z,8.29
2022-10-23T04:22:32.681Z,8.32
2022-10-23T04:25:36.161Z,8.30
2022-10-23T04:28:40.048Z,8.28
2022-10-23T04:31:42.777Z,8.32
2022-10-23T04:34:45.723Z,8.35
2022-10-23T04:37:48.549Z,8.49
2022-10-23T04:40:51.582Z,8.54
2022-10-23T04:43:55.397Z,8.54
2022-10-23T04:46:58.453Z,8.61
2022-10-23T04:50:01.591Z,8.63
2022-10-23T04:53:10.811Z,8.68
2022-10-23T04:56:15.648Z,8.73
2022-10-23T04:59:20.856Z,8.75
2022-10-23T05:02:24.468Z,8.83
2022-10-23T05:05:27.627Z,8.84
2022-10-23T05:08:30.965Z,8.90
2022-10-23T05:11:34.159Z,8.91
2022-10-23T05:14:39.721Z,8.82
2022-10-23T05:17:46.330Z,8.79
2022-10-23T05:20:54.376Z,8.86
2022-10-23T05:23:57.848Z,8.86
2022-10-23T05:27:00.513Z,8.85
2022-10-23T05:30:06.247Z,8.94
2022-10-23T05:33:11.251Z,9.02
2022-10-23T05:36:15.695Z,9.04
2022-10-23T05:39:20.117Z,9.07
2022-10-23T05:42:23.697Z,9.11
2022-10-23T05:45:27.373Z,9.19
2022-10-23T05:48:37.687Z,9.17
2022-10-23T05:51:42.026Z,9.21
2022-10-23T05:54:45.121Z,9.33
2022-10-23T05:57:48.813Z,9.41
2022-10-23T06:00:52.003Z,9.40
2022-10-23T06:03:59.676Z,9.47
2022-10-23T06:07:04.825Z,9.54
2022-10-23T06:10:08.300Z,9.59
2022-10-23T06:13:11.330Z,9.35
2022-10-23T06:16:15.943Z,9.47
2022-10-23T06:19:18.837Z,9.54
2022-10-23T06:22:23.042Z,9.62
2022-10-23T06:25:26.081Z,9.65
2022-10-23T06:28:29.560Z,9.73
2022-10-23T06:31:32.286Z,9.82
2022-10-23T06:34:35.210Z,9.89
2022-10-23T06:37:38.467Z,9.98
2022-10-23T06:40:42.223Z,10.06
2022-10-23T06:43:48.133Z,10.34
2022-10-23T06:46:51.721Z,10.36
2022-10-23T06:49:56.744Z,10.51
2022-10-23T06:52:59.780Z,10.58
2022-10-23T06:56:05.312Z,10.60
2022-10-23T06:59:09.859Z,10.63
2022-10-23T07:02:13.025Z,10.67
2022-10-23T07:05:16.110Z,10.77
2022-10-23T07:08:19.014Z,10.86
2022-10-23T07:11:22.368Z,10.80
2022-10-23T07:14:25.173Z,11.00
2022-10-23T07:17:31.062Z,11.06
2022-10-23T07:20:34.397Z,11.12
2022-10-23T07:23:37.621Z,11.00
2022-10-23T07:26:41.554Z,11.12
2022-10-23T07:29:44.535Z,11.19
2022-10-23T07:32:47.240Z,11.24
2022-10-23T07:35:53.244Z,11.22
2022-10-23T07:38:57.623Z,11.29
2022-10-23T07:42:03.818Z,11.49
2022-10-23T07:45:08.703Z,11.46
2022-10-23T07:48:12.421Z,11.55
2022-10-23T07:51:16.551Z,11.65
2022-10-23T07:54:20.014Z,11.72
2022-10-23T07:57:24.205Z,11.80
2022-10-23T08:00:29.361Z,11.32
2022-10-23T08:03:33.803Z,11.83
2022-10-23T08:06:36.866Z,11.44
2022-10-23T08:09:40.186Z,11.31
2022-10-23T08:12:43.914Z,11.91
2022-10-23T08:15:48.907Z,12.13
2022-10-23T08:18:53.304Z,12.14
2022-10-23T08:21:57.333Z,12.21
2022-10-23T08:25:00.119Z,12.43
2022-10-23T08:28:05.558Z,12.22
2022-10-23T08:31:16.034Z,12.29
2022-10-23T08:34:20.941Z,11.86
2022-10-23T08:37:24.096Z,12.11
2022-10-23T08:40:27.947Z,12.32
2022-10-23T08:43:47.025Z,12.51
2022-10-23T08:47:12.113Z,12.56
2022-10-23T08:50:24.258Z,12.88
2022-10-23T08:53:32.950Z,12.62
2022-10-23T08:56:39.437Z,12.22
2022-10-23T08:59:56.382Z,13.15
2022-10-23T09:03:02.902Z,13.07
2022-10-23T09:06:35.535Z,12.83
2022-10-23T09:09:52.497Z,12.96
2022-10-23T09:13:11.793Z,12.69
2022-10-23T09:16:39.409Z,12.98
2022-10-23T09:19:45.187Z,12.83
2022-10-23T09:22:59.010Z,12.88
2022-10-23T09:26:05.266Z,13.13
2022-10-23T09:29:28.873Z,13.28
2022-10-23T09:32:37.865Z,13.02
2022-10-23T09:36:02.331Z,13.18
2022-10-23T09:39:05.327Z,13.05
2022-10-23T09:42:37.529Z,13.58
2022-10-23T09:45:42.563Z,13.08
2022-10-23T09:48:45.694Z,13.30
2022-10-23T09:51:54.106Z,13.36
2022-10-23T09:55:00.344Z,13.18
2022-10-23T09:58:03.401Z,13.16
2022-10-23T10:01:07.855Z,13.04
2022-10-23T10:04:16.127Z,13.38
2022-10-23T10:07:25.299Z,13.40
2022-10-23T10:10:36.117Z,13.29
2022-10-23T10:14:25.021Z,13.51
2022-10-23T10:17:51.283Z,13.35
2022-10-23T10:21:21.242Z,13.38
2022-10-23T10:24:47.153Z,12.98
2022-10-23T10:28:24.996Z,13.10
2022-10-23T10:31:53.078Z,13.46
2022-10-23T10:35:19.341Z,13.64
2022-10-23T10:38:50.810Z,13.31
2022-10-23T10:42:46.767Z,13.51
2022-10-23T11:02:14.543Z,13.84
2022-10-23T11:05:39.043Z,13.70
2022-10-23T11:09:29.184Z,14.08
2022-10-23T11:12:53.783Z,14.22
2022-10-23T11:16:09.781Z,14.55
2022-10-23T11:19:30.351Z,14.54
2022-10-23T11:22:47.988Z,14.46
2022-10-23T11:26:13.349Z,14.81
2022-10-23T11:29:52.394Z,14.68
2022-10-23T11:33:28.659Z,14.72
2022-10-23T11:36:52.932Z,14.60
2022-10-23T11:40:08.052Z,14.67
2022-10-23T11:43:10.870Z,14.64
2022-10-23T11:46:29.727Z,14.80
2022-10-23T11:49:32.475Z,15.12
2022-10-23T11:52:45.572Z,15.20
2022-10-23T11:56:05.281Z,15.83
2022-10-23T11:59:29.249Z,15.70
2022-10-23T12:02:42.084Z,16.09
2022-10-23T12:05:46.059Z,16.36
2022-10-23T12:08:53.428Z,15.92
2022-10-23T12:12:16.000Z,15.78
2022-10-23T12:15:22.832Z,15.99
2022-10-23T12:18:27.535Z,15.89
2022-10-23T12:21:35.253Z,15.87
2022-10-23T12:24:53.585Z,16.19
2022-10-23T12:28:19.620Z,16.14
2022-10-23T12:31:48.322Z,16.28
2022-10-23T12:35:43.218Z,16.30
2022-10-23T12:38:47.410Z,16.33
2022-10-23T12:41:50.188Z,16.45
2022-10-23T12:44:59.224Z,16.57
2022-10-23T12:48:02.193Z,16.26
2022-10-23T12:51:05.492Z,16.44
2022-10-23T12:54:20.027Z,16.14
2022-10-23T12:57:25.617Z,16.02
2022-10-23T13:00:28.553Z,16.24
2022-10-23T13:03:34.294Z,15.98
2022-10-23T13:06:39.421Z,16.16
2022-10-23T13:09:45.498Z,16.18
2022-10-23T13:13:18.368Z,16.41
2022-10-23T13:16:24.368Z,16.01
2022-10-23T13:19:27.743Z,16.06
2022-10-23T13:22:31.338Z,16.31
2022-10-23T13:25:35.662Z,16.33
2022-10-23T13:28:44.384Z,16.31
2022-10-23T13:31:47.531Z,16.45
2022-10-23T13:35:03.649Z,16.36
2022-10-23T13:38:13.590Z,16.14
2022-10-23T13:41:28.877Z,16.32
2022-10-23T14:15:20.666Z,16.36
2022-10-23T14:18:24.459Z,16.38
2022-10-23T14:21:28.302Z,16.41
2022-10-23T14:24:31.458Z,16.32
2022-10-23T14:27:34.676Z,16.27
2022-10-23T14:30:38.019Z,16.22
2022-10-23T14:33:41.587Z,16.20
2022-10-23T14:36:50.954Z,16.13
2022-10-23T14:40:00.864Z,16.11
2022-10-23T14:43:05.621Z,16.10
2022-10-23T14:46:14.947Z,16.13
2022-10-23T14:49:18.465Z,16.09
2022-10-23T14:52:22.102Z,16.05
2022-10-23T14:55:26.587Z,16.05
2022-10-23T14:58:30.480Z,15.99
2022-10-23T15:01:37.778Z,15.96
2022-10-23T15:04:40.910Z,15.98
2022-10-23T15:07:44.814Z,15.89
2022-10-23T15:10:47.958Z,15.77
2022-10-23T15:13:51.664Z,15.75
2022-10-23T15:16:57.170Z,15.67
2022-10-23T15:20:01.227Z,15.66
2022-10-23T15:23:04.614Z,15.56
2022-10-23T15:26:11.842Z,15.54
2022-10-23T15:29:15.627Z,15.48
2022-10-23T15:32:25.188Z,15.43
2022-10-23T15:38:33.255Z,15.36
2022-10-23T15:42:03.880Z,15.30
2022-10-23T15:49:52.033Z,15.19
2022-10-23T15:52:57.158Z,15.14
2022-10-23T15:56:01.302Z,15.11
2022-10-23T15:59:05.074Z,15.03
2022-10-23T16:02:12.880Z,14.96
2022-10-23T16:05:17.585Z,14.93
2022-10-23T16:08:22.724Z,14.87
2022-10-23T16:11:29.066Z,14.91
2022-10-23T16:14:32.714Z,14.85
2022-10-23T16:17:38.350Z,14.86
2022-10-23T16:20:41.713Z,14.88
2022-10-23T16:23:46.833Z,14.81
2022-10-23T16:26:53.239Z,14.70
2022-10-23T16:29:56.703Z,14.72
2022-10-23T16:32:59.727Z,14.71
2022-10-23T16:36:39.217Z,14.67
2022-10-23T16:39:46.337Z,14.69
2022-10-23T16:42:52.280Z,14.85
2022-10-23T16:46:01.570Z,14.84
2022-10-23T16:49:08.138Z,14.77
2022-10-23T16:52:11.736Z,14.74
2022-10-23T16:55:33.407Z,14.86
2022-10-23T16:58:45.599Z,14.76
2022-10-23T17:01:48.964Z,14.70
2022-10-23T17:04:54.808Z,14.76
2022-10-23T17:08:07.114Z,14.74
2022-10-23T17:11:25.832Z,14.96
2022-10-23T17:14:29.453Z,14.99
2022-10-23T17:17:36.751Z,14.67
2022-10-23T17:20:41.569Z,14.75
2022-10-23T17:23:45.312Z,14.56
2022-10-23T17:26:48.620Z,14.67
2022-10-23T17:29:52.094Z,14.54
2022-10-23T17:32:58.240Z,14.68
2022-10-23T17:36:05.904Z,14.65
2022-10-23T17:39:25.260Z,14.55
2022-10-23T17:42:29.636Z,14.43
2022-10-23T17:45:35.744Z,14.87
2022-10-23T17:48:56.999Z,14.59
2022-10-23T17:52:00.062Z,14.33
2022-10-23T17:55:03.671Z,14.28
2022-10-23T17:58:08.068Z,14.24
2022-10-23T18:01:27.600Z,14.01
2022-10-23T18:04:34.750Z,14.08
2022-10-23T18:10:49.019Z,13.81
2022-10-23T18:13:56.689Z,13.56
2022-10-23T18:17:01.032Z,13.41
2022-10-23T18:20:04.741Z,13.24
2022-10-23T18:23:25.570Z,13.28
2022-10-23T18:26:31.283Z,13.07
2022-10-23T18:29:34.782Z,13.02
2022-10-23T18:32:48.617Z,12.89
2022-10-23T18:35:52.799Z,13.18
2022-10-23T18:42:23.467Z,13.14
2022-10-23T18:45:27.014Z,13.06
2022-10-23T18:48:34.369Z,13.08
2022-10-23T18:51:46.431Z,13.13
2022-10-23T18:54:49.690Z,13.26
2022-10-23T19:01:10.899Z,13.63
2022-10-23T19:07:36.160Z,13.47
2022-10-23T19:10:43.529Z,13.43
2022-10-23T19:13:47.012Z,13.55
2022-10-23T19:17:13.697Z,13.42
2022-10-23T19:20:19.970Z,13.39
2022-10-23T19:23:23.056Z,13.48
2022-10-23T19:26:27.250Z,13.45
2022-10-23T19:29:31.729Z,13.48
2022-10-23T19:32:35.120Z,13.59
2022-10-23T19:35:37.970Z,13.56
2022-10-23T19:38:42.442Z,13.55
2022-10-23T19:41:46.160Z,13.58
2022-10-23T19:44:49.452Z,13.62
2022-10-23T19:47:52.367Z,13.72
2022-10-23T19:50:55.668Z,13.62
2022-10-23T19:53:59.000Z,13.77
2022-10-23T19:57:02.557Z,13.63
2022-10-23T20:00:07.442Z,13.81
2022-10-23T20:03:12.842Z,13.71
2022-10-23T20:06:26.478Z,14.10
2022-10-23T20:09:30.642Z,13.86
2022-10-23T20:12:33.832Z,13.81
2022-10-23T20:15:38.005Z,14.02
2022-10-23T20:18:41.110Z,14.01
2022-10-23T20:21:47.041Z,13.93
2022-10-23T20:24:50.667Z,13.93
2022-10-23T20:27:53.489Z,13.95
2022-10-23T20:30:56.845Z,13.98
2022-10-23T20:33:59.868Z,13.92
2022-10-23T20:37:03.584Z,14.07
2022-10-23T20:40:07.046Z,14.12
2022-10-23T20:43:10.452Z,14.37
2022-10-23T20:46:13.589Z,14.38
2022-10-23T20:49:17.633Z,14.13
2022-10-23T20:52:22.079Z,13.96
2022-10-23T20:55:27.687Z,13.95
2022-10-23T20:58:30.385Z,13.95
2022-10-23T21:01:34.869Z,13.81
2022-10-23T21:04:37.508Z,13.82
2022-10-23T21:07:40.409Z,13.78
2022-10-23T21:10:47.235Z,13.74
2022-10-23T21:13:50.130Z,13.98
2022-10-23T21:16:52.804Z,14.06
2022-10-23T21:19:56.320Z,14.07
2022-10-23T21:22:58.906Z,14.17
2022-10-23T21:26:06.337Z,13.87
2022-10-23T21:29:18.489Z,14.38
2022-10-23T21:32:22.529Z,14.43
2022-10-23T21:35:30.009Z,14.26
2022-10-23T21:38:33.486Z,13.99
2022-10-23T21:41:36.064Z,13.96
2022-10-23T21:44:42.165Z,14.18
2022-10-23T21:47:45.166Z,14.31
2022-10-23T21:53:57.059Z,14.16
2022-10-23T21:57:00.048Z,13.90
2022-10-23T22:00:02.741Z,14.11
2022-10-23T22:03:15.017Z,13.79
2022-10-23T22:06:24.838Z,13.78
2022-10-23T22:09:27.526Z,13.66
2022-10-23T22:12:30.403Z,13.73
2022-10-23T22:15:32.902Z,13.65
2022-10-23T22:18:36.746Z,13.75
2022-10-23T22:21:39.317Z,13.99
2022-10-23T22:24:42.118Z,13.93
2022-10-23T22:27:44.822Z,13.99
2022-10-23T22:30:47.883Z,13.80
2022-10-23T22:33:51.173Z,13.87
2022-10-23T22:36:54.694Z,13.51
2022-10-23T22:39:57.353Z,13.50
2022-10-23T22:43:00.178Z,13.67
2022-10-23T22:46:14.310Z,13.46
2022-10-23T22:49:17.137Z,13.58
2022-10-23T22:52:19.698Z,13.18
2022-10-23T22:55:22.538Z,12.85
2022-10-23T22:58:26.108Z,12.98
2022-10-23T23:01:36.883Z,12.67
2022-10-23T23:04:39.683Z,12.73
2022-10-23T23:07:45.757Z,12.70
2022-10-23T23:10:58.117Z,12.84
2022-10-23T23:14:01.735Z,12.65
2022-10-23T23:17:05.254Z,12.53
2022-10-23T23:20:08.780Z,12.39
2022-10-23T23:23:12.510Z,12.48
2022-10-23T23:26:16.318Z,12.42
2022-10-23T23:29:19.596Z,12.29
